sensor_id;sensor_type;location;lat;lon;timestamp;pressure;altitude;pressure_sealevel;temperature;humidity
31044;BME280;17710;52.520;13.352;2023-08-06T00:02:19;100487.63;;;23.12;68.85
31044;BME280;17710;52.520;13.352;2023-08-06T00:04:45;100487.34;;;23.05;69.11
31044;BME280;17710;52.520;13.352;2023-08-06T00:07:11;100483.97;;;23.03;69.30
31044;BME280;17710;52.520;13.352;2023-08-06T00:09:39;100481.38;;;22.92;69.63
31044;BME280;17710;52.520;13.352;2023-08-06T00:12:06;100484.00;;;22.63;70.59
31044;BME280;17710;52.520;13.352;2023-08-06T00:14:32;100483.63;;;22.78;70.25
31044;BME280;17710;52.520;13.352;2023-08-06T00:16:59;100476.41;;;22.88;69.86
31044;BME280;17710;52.520;13.352;2023-08-06T00:19:25;100473.59;;;23.09;68.59
31044;BME280;17710;52.520;13.352;2023-08-06T00:21:51;100469.19;;;22.98;69.35
31044;BME280;17710;52.520;13.352;2023-08-06T00:24:18;100459.00;;;23.01;68.60
31044;BME280;17710;52.520;13.352;2023-08-06T00:26:45;100463.66;;;22.99;68.29
31044;BME280;17710;52.520;13.352;2023-08-06T00:29:12;100459.28;;;23.08;67.91
31044;BME280;17710;52.520;13.352;2023-08-06T00:31:38;100464.22;;;22.93;68.72
31044;BME280;17710;52.520;13.352;2023-08-06T00:34:04;100453.16;;;23.06;68.08
31044;BME280;17710;52.520;13.352;2023-08-06T00:36:31;100458.41;;;22.98;68.25
31044;BME280;17710;52.520;13.352;2023-08-06T00:38:57;100460.28;;;23.07;67.73
31044;BME280;17710;52.520;13.352;2023-08-06T00:41:23;100456.53;;;22.79;68.77
31044;BME280;17710;52.520;13.352;2023-08-06T00:43:51;100450.78;;;23.03;68.10
31044;BME280;17710;52.520;13.352;2023-08-06T00:46:17;100462.22;;;22.86;68.44
31044;BME280;17710;52.520;13.352;2023-08-06T00:48:44;100457.41;;;22.80;68.86
31044;BME280;17710;52.520;13.352;2023-08-06T00:51:10;100453.97;;;22.78;68.72
31044;BME280;17710;52.520;13.352;2023-08-06T00:53:37;100450.59;;;22.76;68.82
31044;BME280;17710;52.520;13.352;2023-08-06T00:56:04;100451.81;;;22.72;69.33
31044;BME280;17710;52.520;13.352;2023-08-06T00:58:31;100451.81;;;22.72;69.16
31044;BME280;17710;52.520;13.352;2023-08-06T01:00:59;100451.53;;;22.65;69.59
31044;BME280;17710;52.520;13.352;2023-08-06T01:03:26;100448.09;;;22.44;70.58
31044;BME280;17710;52.520;13.352;2023-08-06T01:05:52;100447.84;;;22.56;70.67
31044;BME280;17710;52.520;13.352;2023-08-06T01:08:30;100442.66;;;22.34;71.13
31044;BME280;17710;52.520;13.352;2023-08-06T01:11:05;100445.72;;;22.60;69.87
31044;BME280;17710;52.520;13.352;2023-08-06T01:13:41;100439.19;;;22.62;69.90
31044;BME280;17710;52.520;13.352;2023-08-06T01:16:11;100438.44;;;22.41;70.76
31044;BME280;17710;52.520;13.352;2023-08-06T01:18:37;100436.47;;;22.43;70.33
31044;BME280;17710;52.520;13.352;2023-08-06T01:21:06;100434.31;;;22.77;69.18
31044;BME280;17710;52.520;13.352;2023-08-06T01:23:33;100431.78;;;22.45;70.42
31044;BME280;17710;52.520;13.352;2023-08-06T01:26:05;100424.56;;;22.46;70.42
31044;BME280;17710;52.520;13.352;2023-08-06T01:28:40;100422.88;;;22.54;70.14
31044;BME280;17710;52.520;13.352;2023-08-06T01:31:15;100422.56;;;22.38;70.92
31044;BME280;17710;52.520;13.352;2023-08-06T01:33:45;100416.78;;;22.52;70.39
31044;BME280;17710;52.520;13.352;2023-08-06T01:36:15;100418.63;;;22.52;70.52
31044;BME280;17710;52.520;13.352;2023-08-06T01:38:42;100412.16;;;22.64;69.89
31044;BME280;17710;52.520;13.352;2023-08-06T01:41:09;100403.19;;;22.44;70.65
31044;BME280;17710;52.520;13.352;2023-08-06T01:43:35;100409.00;;;22.49;70.71
31044;BME280;17710;52.520;13.352;2023-08-06T01:46:02;100398.88;;;22.32;71.45
31044;BME280;17710;52.520;13.352;2023-08-06T01:48:28;100395.09;;;22.44;71.02
31044;BME280;17710;52.520;13.352;2023-08-06T01:50:54;100397.88;;;22.33;71.68
31044;BME280;17710;52.520;13.352;2023-08-06T01:53:22;100399.03;;;22.40;71.68
31044;BME280;17710;52.520;13.352;2023-08-06T01:55:48;100395.09;;;22.44;71.41
31044;BME280;17710;52.520;13.352;2023-08-06T01:58:15;100392.66;;;22.41;71.75
31044;BME280;17710;52.520;13.352;2023-08-06T02:00:41;100391.09;;;22.29;72.32
31044;BME280;17710;52.520;13.352;2023-08-06T02:03:08;100387.13;;;22.33;72.33
31044;BME280;17710;52.520;13.352;2023-08-06T02:05:34;100387.41;;;22.40;72.11
31044;BME280;17710;52.520;13.352;2023-08-06T02:08:00;100386.13;;;22.34;72.34
31044;BME280;17710;52.520;13.352;2023-08-06T02:10:28;100384.00;;;22.18;73.33
31044;BME280;17710;52.520;13.352;2023-08-06T02:12:54;100383.75;;;22.41;72.66
31044;BME280;17710;52.520;13.352;2023-08-06T02:15:21;100385.28;;;22.24;73.02
31044;BME280;17710;52.520;13.352;2023-08-06T02:17:47;100375.78;;;22.30;73.37
31044;BME280;17710;52.520;13.352;2023-08-06T02:20:14;100378.06;;;22.34;72.73
31044;BME280;17710;52.520;13.352;2023-08-06T02:22:40;100381.19;;;22.39;72.50
31044;BME280;17710;52.520;13.352;2023-08-06T02:25:07;100384.00;;;22.28;72.97
31044;BME280;17710;52.520;13.352;2023-08-06T02:27:37;100376.06;;;22.26;72.90
31044;BME280;17710;52.520;13.352;2023-08-06T02:30:04;100366.44;;;21.94;74.30
31044;BME280;17710;52.520;13.352;2023-08-06T02:32:31;100371.59;;;22.06;73.94
31044;BME280;17710;52.520;13.352;2023-08-06T02:35:00;100363.41;;;22.08;74.41
31044;BME280;17710;52.520;13.352;2023-08-06T02:37:27;100367.91;;;21.98;74.72
31044;BME280;17710;52.520;13.352;2023-08-06T02:39:53;100361.44;;;22.19;74.03
31044;BME280;17710;52.520;13.352;2023-08-06T02:42:20;100362.41;;;22.09;74.28
31044;BME280;17710;52.520;13.352;2023-08-06T02:44:47;100348.00;;;22.10;74.66
31044;BME280;17710;52.520;13.352;2023-08-06T02:47:14;100348.84;;;22.20;73.75
31044;BME280;17710;52.520;13.352;2023-08-06T02:49:40;100344.00;;;22.04;74.42
31044;BME280;17710;52.520;13.352;2023-08-06T02:52:08;100343.84;;;22.06;74.54
31044;BME280;17710;52.520;13.352;2023-08-06T02:54:34;100346.28;;;22.09;74.50
31044;BME280;17710;52.520;13.352;2023-08-06T02:57:00;100341.75;;;22.09;75.05
31044;BME280;17710;52.520;13.352;2023-08-06T02:59:27;100338.47;;;22.06;74.37
31044;BME280;17710;52.520;13.352;2023-08-06T03:01:55;100338.50;;;22.15;74.71
31044;BME280;17710;52.520;13.352;2023-08-06T03:04:21;100344.16;;;22.12;74.58
31044;BME280;17710;52.520;13.352;2023-08-06T03:06:49;100341.34;;;21.83;76.08
31044;BME280;17710;52.520;13.352;2023-08-06T03:09:15;100337.22;;;21.79;76.15
31044;BME280;17710;52.520;13.352;2023-08-06T03:11:42;100339.38;;;21.85;75.96
31044;BME280;17710;52.520;13.352;2023-08-06T03:14:08;100339.38;;;21.85;75.82
31044;BME280;17710;52.520;13.352;2023-08-06T03:16:35;100332.16;;;21.86;75.56
31044;BME280;17710;52.520;13.352;2023-08-06T03:19:03;100333.28;;;21.83;76.29
31044;BME280;17710;52.520;13.352;2023-08-06T03:21:30;100326.94;;;21.84;76.06
31044;BME280;17710;52.520;13.352;2023-08-06T03:23:56;100326.06;;;21.84;76.15
31044;BME280;17710;52.520;13.352;2023-08-06T03:26:23;100320.94;;;21.81;76.20
31044;BME280;17710;52.520;13.352;2023-08-06T03:28:49;100318.94;;;21.73;76.88
31044;BME280;17710;52.520;13.352;2023-08-06T03:31:15;100323.59;;;22.02;75.96
31044;BME280;17710;52.520;13.352;2023-08-06T03:33:42;100322.97;;;21.88;76.58
31044;BME280;17710;52.520;13.352;2023-08-06T03:36:09;100311.97;;;22.01;76.21
31044;BME280;17710;52.520;13.352;2023-08-06T03:38:36;100313.69;;;22.02;76.06
31044;BME280;17710;52.520;13.352;2023-08-06T03:41:02;100299.25;;;22.03;76.00
31044;BME280;17710;52.520;13.352;2023-08-06T03:43:28;100305.19;;;22.07;76.21
31044;BME280;17710;52.520;13.352;2023-08-06T03:45:54;100300.13;;;22.04;76.01
31044;BME280;17710;52.520;13.352;2023-08-06T03:48:20;100298.97;;;21.97;75.85
31044;BME280;17710;52.520;13.352;2023-08-06T03:50:47;100298.50;;;21.92;76.62
31044;BME280;17710;52.520;13.352;2023-08-06T03:53:14;100289.06;;;22.07;75.95
31044;BME280;17710;52.520;13.352;2023-08-06T03:55:41;100287.56;;;21.83;76.68
31044;BME280;17710;52.520;13.352;2023-08-06T03:58:08;100284.28;;;21.70;77.46
31044;BME280;17710;52.520;13.352;2023-08-06T04:00:34;100282.31;;;21.82;76.88
31044;BME280;17710;52.520;13.352;2023-08-06T04:03:00;100280.59;;;21.71;76.91
31044;BME280;17710;52.520;13.352;2023-08-06T04:05:27;100278.28;;;21.97;76.05
31044;BME280;17710;52.520;13.352;2023-08-06T04:07:53;100283.00;;;21.74;76.62
31044;BME280;17710;52.520;13.352;2023-08-06T04:10:21;100276.47;;;21.67;76.48
31044;BME280;17710;52.520;13.352;2023-08-06T04:12:47;100264.84;;;21.57;77.80
31044;BME280;17710;52.520;13.352;2023-08-06T04:15:14;100264.16;;;21.74;76.98
31044;BME280;17710;52.520;13.352;2023-08-06T04:17:40;100263.84;;;21.58;78.03
31044;BME280;17710;52.520;13.352;2023-08-06T04:20:07;100265.63;;;21.78;77.21
31044;BME280;17710;52.520;13.352;2023-08-06T04:22:34;100261.06;;;21.69;76.85
31044;BME280;17710;52.520;13.352;2023-08-06T04:25:00;100260.44;;;21.96;76.12
31044;BME280;17710;52.520;13.352;2023-08-06T04:27:28;100259.25;;;21.89;76.22
31044;BME280;17710;52.520;13.352;2023-08-06T04:29:55;100262.88;;;21.69;76.95
31044;BME280;17710;52.520;13.352;2023-08-06T04:32:21;100256.69;;;21.87;76.00
31044;BME280;17710;52.520;13.352;2023-08-06T04:34:48;100248.94;;;21.84;75.79
31044;BME280;17710;52.520;13.352;2023-08-06T04:37:14;100246.50;;;21.72;75.87
31044;BME280;17710;52.520;13.352;2023-08-06T04:39:41;100247.16;;;21.64;76.13
31044;BME280;17710;52.520;13.352;2023-08-06T04:42:07;100241.41;;;21.78;75.54
31044;BME280;17710;52.520;13.352;2023-08-06T04:44:35;100239.53;;;21.69;75.24
31044;BME280;17710;52.520;13.352;2023-08-06T04:47:01;100230.78;;;21.77;75.23
31044;BME280;17710;52.520;13.352;2023-08-06T04:49:28;100233.47;;;21.86;75.20
31044;BME280;17710;52.520;13.352;2023-08-06T04:51:54;100224.56;;;21.86;75.54
31044;BME280;17710;52.520;13.352;2023-08-06T04:54:21;100220.50;;;21.92;75.34
31044;BME280;17710;52.520;13.352;2023-08-06T04:56:47;100223.63;;;21.97;75.14
31044;BME280;17710;52.520;13.352;2023-08-06T04:59:13;100219.41;;;22.04;74.89
31044;BME280;17710;52.520;13.352;2023-08-06T05:01:41;100215.56;;;21.97;74.82
31044;BME280;17710;52.520;13.352;2023-08-06T05:04:08;100228.25;;;21.95;75.55
31044;BME280;17710;52.520;13.352;2023-08-06T05:06:34;100216.75;;;21.73;76.30
31044;BME280;17710;52.520;13.352;2023-08-06T05:09:03;100216.66;;;21.94;75.50
31044;BME280;17710;52.520;13.352;2023-08-06T05:11:29;100212.09;;;21.75;76.05
31044;BME280;17710;52.520;13.352;2023-08-06T05:13:56;100218.34;;;21.95;76.29
31044;BME280;17710;52.520;13.352;2023-08-06T05:16:23;100212.31;;;22.22;75.25
31044;BME280;17710;52.520;13.352;2023-08-06T05:18:51;100207.19;;;22.00;74.90
31044;BME280;17710;52.520;13.352;2023-08-06T05:21:17;100208.41;;;21.86;75.70
31044;BME280;17710;52.520;13.352;2023-08-06T05:23:44;100206.88;;;21.93;74.41
31044;BME280;17710;52.520;13.352;2023-08-06T05:26:10;100195.44;;;22.01;73.67
31044;BME280;17710;52.520;13.352;2023-08-06T05:28:37;100190.50;;;22.15;73.74
31044;BME280;17710;52.520;13.352;2023-08-06T05:31:03;100190.06;;;22.20;73.15
31044;BME280;17710;52.520;13.352;2023-08-06T05:33:30;100180.03;;;22.32;72.89
31044;BME280;17710;52.520;13.352;2023-08-06T05:35:58;100182.59;;;22.23;73.37
31044;BME280;17710;52.520;13.352;2023-08-06T05:38:24;100185.16;;;22.25;74.12
31044;BME280;17710;52.520;13.352;2023-08-06T05:40:50;100180.88;;;22.13;74.00
31044;BME280;17710;52.520;13.352;2023-08-06T05:43:17;100180.28;;;22.19;73.54
31044;BME280;17710;52.520;13.352;2023-08-06T05:45:44;100183.13;;;22.08;73.37
31044;BME280;17710;52.520;13.352;2023-08-06T05:48:11;100189.66;;;21.96;74.67
31044;BME280;17710;52.520;13.352;2023-08-06T05:50:37;100182.28;;;22.36;73.06
31044;BME280;17710;52.520;13.352;2023-08-06T05:53:05;100182.16;;;22.28;73.45
31044;BME280;17710;52.520;13.352;2023-08-06T05:55:31;100187.06;;;22.52;72.01
31044;BME280;17710;52.520;13.352;2023-08-06T05:57:58;100180.44;;;22.37;72.70
31044;BME280;17710;52.520;13.352;2023-08-06T06:00:24;100182.00;;;22.39;72.57
31044;BME280;17710;52.520;13.352;2023-08-06T06:02:50;100187.81;;;22.44;73.01
31044;BME280;17710;52.520;13.352;2023-08-06T06:05:17;100179.72;;;22.54;72.19
31044;BME280;17710;52.520;13.352;2023-08-06T06:07:43;100183.53;;;22.51;72.10
31044;BME280;17710;52.520;13.352;2023-08-06T06:10:11;100179.03;;;22.33;72.35
31044;BME280;17710;52.520;13.352;2023-08-06T06:12:38;100170.13;;;22.22;72.89
31044;BME280;17710;52.520;13.352;2023-08-06T06:15:05;100167.97;;;22.36;72.46
31044;BME280;17710;52.520;13.352;2023-08-06T06:17:32;100170.91;;;22.52;72.32
31044;BME280;17710;52.520;13.352;2023-08-06T06:19:58;100169.34;;;22.69;71.61
31044;BME280;17710;52.520;13.352;2023-08-06T06:22:24;100170.63;;;22.74;71.87
31044;BME280;17710;52.520;13.352;2023-08-06T06:24:51;100164.13;;;22.77;71.34
31044;BME280;17710;52.520;13.352;2023-08-06T06:27:18;100156.31;;;22.74;72.02
31044;BME280;17710;52.520;13.352;2023-08-06T06:29:45;100165.78;;;22.68;71.56
31044;BME280;17710;52.520;13.352;2023-08-06T06:32:11;100163.41;;;22.75;70.99
31044;BME280;17710;52.520;13.352;2023-08-06T06:34:38;100154.72;;;22.90;70.59
31044;BME280;17710;52.520;13.352;2023-08-06T06:37:04;100159.84;;;23.11;71.05
31044;BME280;17710;52.520;13.352;2023-08-06T06:39:31;100153.59;;;22.83;71.77
31044;BME280;17710;52.520;13.352;2023-08-06T06:41:57;100154.19;;;23.14;70.91
31044;BME280;17710;52.520;13.352;2023-08-06T06:44:25;100152.44;;;22.86;71.52
31044;BME280;17710;52.520;13.352;2023-08-06T06:46:51;100151.38;;;23.06;71.56
31044;BME280;17710;52.520;13.352;2023-08-06T06:49:18;100154.91;;;23.07;71.94
31044;BME280;17710;52.520;13.352;2023-08-06T06:51:44;100150.25;;;22.99;72.70
31044;BME280;17710;52.520;13.352;2023-08-06T06:54:11;100150.84;;;22.93;72.23
31044;BME280;17710;52.520;13.352;2023-08-06T06:56:37;100140.94;;;22.93;72.92
31044;BME280;17710;52.520;13.352;2023-08-06T06:59:04;100153.28;;;22.86;72.98
31044;BME280;17710;52.520;13.352;2023-08-06T07:01:31;100154.28;;;22.85;73.53
31044;BME280;17710;52.520;13.352;2023-08-06T07:03:58;100159.25;;;22.90;73.62
31044;BME280;17710;52.520;13.352;2023-08-06T07:06:29;100153.94;;;22.98;73.18
31044;BME280;17710;52.520;13.352;2023-08-06T07:08:56;100159.44;;;23.06;72.67
31044;BME280;17710;52.520;13.352;2023-08-06T07:11:22;100163.72;;;22.99;73.31
31044;BME280;17710;52.520;13.352;2023-08-06T07:13:50;100160.25;;;22.89;73.47
31044;BME280;17710;52.520;13.352;2023-08-06T07:16:22;100161.50;;;22.85;73.90
31044;BME280;17710;52.520;13.352;2023-08-06T07:18:51;100160.03;;;23.00;73.82
31044;BME280;17710;52.520;13.352;2023-08-06T07:21:17;100162.00;;;23.08;72.72
31044;BME280;17710;52.520;13.352;2023-08-06T07:23:44;100164.56;;;23.09;72.82
31044;BME280;17710;52.520;13.352;2023-08-06T07:26:10;100162.19;;;23.24;71.40
31044;BME280;17710;52.520;13.352;2023-08-06T07:28:37;100160.03;;;23.00;71.82
31044;BME280;17710;52.520;13.352;2023-08-06T07:31:03;100162.41;;;23.13;71.44
31044;BME280;17710;52.520;13.352;2023-08-06T07:33:30;100163.19;;;22.95;72.20
31044;BME280;17710;52.520;13.352;2023-08-06T07:35:58;100164.03;;;22.96;72.57
31044;BME280;17710;52.520;13.352;2023-08-06T07:38:25;100161.22;;;22.88;70.67
31044;BME280;17710;52.520;13.352;2023-08-06T07:40:53;100159.56;;;22.77;70.85
31044;BME280;17710;52.520;13.352;2023-08-06T07:43:19;100163.94;;;22.88;70.84
31044;BME280;17710;52.520;13.352;2023-08-06T07:45:46;100155.91;;;23.05;70.30
31044;BME280;17710;52.520;13.352;2023-08-06T07:48:12;100152.56;;;22.94;70.51
31044;BME280;17710;52.520;13.352;2023-08-06T07:50:38;100155.25;;;22.94;71.09
31044;BME280;17710;52.520;13.352;2023-08-06T07:53:06;100152.03;;;22.90;71.43
31044;BME280;17710;52.520;13.352;2023-08-06T07:55:33;100151.25;;;22.98;70.96
31044;BME280;17710;52.520;13.352;2023-08-06T07:57:59;100154.25;;;22.95;70.95
31044;BME280;17710;52.520;13.352;2023-08-06T08:00:26;100161.16;;;23.07;70.60
31044;BME280;17710;52.520;13.352;2023-08-06T08:02:52;100152.88;;;23.18;70.93
31044;BME280;17710;52.520;13.352;2023-08-06T08:05:19;100150.91;;;23.48;70.08
31044;BME280;17710;52.520;13.352;2023-08-06T08:07:45;100150.06;;;23.37;70.54
31044;BME280;17710;52.520;13.352;2023-08-06T08:10:13;100148.09;;;23.39;70.71
31044;BME280;17710;52.520;13.352;2023-08-06T08:12:40;100150.78;;;23.67;68.93
31044;BME280;17710;52.520;13.352;2023-08-06T08:15:07;100141.59;;;23.60;69.57
31044;BME280;17710;52.520;13.352;2023-08-06T08:17:33;100145.47;;;23.75;69.21
31044;BME280;17710;52.520;13.352;2023-08-06T08:19:59;100137.25;;;23.94;67.43
31044;BME280;17710;52.520;13.352;2023-08-06T08:22:26;100136.53;;;23.92;66.55
31044;BME280;17710;52.520;13.352;2023-08-06T08:24:52;100137.78;;;24.15;67.45
31044;BME280;17710;52.520;13.352;2023-08-06T08:27:20;100138.91;;;24.31;65.92
31044;BME280;17710;52.520;13.352;2023-08-06T08:29:47;100122.84;;;24.47;64.42
31044;BME280;17710;52.520;13.352;2023-08-06T08:32:13;100129.34;;;24.62;64.37
31044;BME280;17710;52.520;13.352;2023-08-06T08:34:40;100128.19;;;24.39;65.54
31044;BME280;17710;52.520;13.352;2023-08-06T08:37:06;100122.84;;;24.21;66.00
31044;BME280;17710;52.520;13.352;2023-08-06T08:39:32;100123.91;;;24.28;66.09
31044;BME280;17710;52.520;13.352;2023-08-06T08:41:59;100114.63;;;24.31;65.80
31044;BME280;17710;52.520;13.352;2023-08-06T08:44:27;100112.56;;;24.25;66.20
31044;BME280;17710;52.520;13.352;2023-08-06T08:46:55;100109.59;;;24.18;66.14
31044;BME280;17710;52.520;13.352;2023-08-06T08:49:23;100110.19;;;24.21;67.03
31044;BME280;17710;52.520;13.352;2023-08-06T08:51:52;100111.69;;;24.76;64.94
31044;BME280;17710;52.520;13.352;2023-08-06T08:54:20;100103.16;;;24.88;64.29
31044;BME280;17710;52.520;13.352;2023-08-06T08:56:48;100100.88;;;24.93;64.46
31044;BME280;17710;52.520;13.352;2023-08-06T08:59:15;100096.19;;;24.78;65.46
31044;BME280;17710;52.520;13.352;2023-08-06T09:01:45;100098.63;;;24.63;65.51
31044;BME280;17710;52.520;13.352;2023-08-06T09:04:16;100091.38;;;23.94;67.32
31044;BME280;17710;52.520;13.352;2023-08-06T09:06:43;100087.13;;;24.35;66.57
31044;BME280;17710;52.520;13.352;2023-08-06T09:09:14;100086.91;;;24.46;66.52
31044;BME280;17710;52.520;13.352;2023-08-06T09:11:43;100078.38;;;24.33;67.03
31044;BME280;17710;52.520;13.352;2023-08-06T09:14:11;100079.00;;;24.27;66.16
31044;BME280;17710;52.520;13.352;2023-08-06T09:16:38;100074.59;;;24.26;67.05
31044;BME280;17710;52.520;13.352;2023-08-06T09:19:08;100077.03;;;24.37;66.86
31044;BME280;17710;52.520;13.352;2023-08-06T09:21:37;100077.78;;;24.47;67.27
31044;BME280;17710;52.520;13.352;2023-08-06T09:24:07;100069.34;;;24.25;67.28
31044;BME280;17710;52.520;13.352;2023-08-06T09:26:34;100067.25;;;24.18;67.30
31044;BME280;17710;52.520;13.352;2023-08-06T09:29:00;100068.44;;;24.42;67.53
31044;BME280;17710;52.520;13.352;2023-08-06T09:31:32;100065.72;;;24.34;67.36
31044;BME280;17710;52.520;13.352;2023-08-06T09:33:59;100061.91;;;24.44;66.74
31044;BME280;17710;52.520;13.352;2023-08-06T09:36:27;100058.84;;;24.39;66.07
31044;BME280;17710;52.520;13.352;2023-08-06T09:38:53;100057.94;;;24.31;67.54
31044;BME280;17710;52.520;13.352;2023-08-06T09:41:26;100052.78;;;24.19;66.83
31044;BME280;17710;52.520;13.352;2023-08-06T09:43:53;100050.16;;;24.28;66.80
31044;BME280;17710;52.520;13.352;2023-08-06T09:46:19;100048.41;;;24.01;67.28
31044;BME280;17710;52.520;13.352;2023-08-06T09:48:47;100044.69;;;23.76;68.59
31044;BME280;17710;52.520;13.352;2023-08-06T09:51:14;100045.94;;;23.90;67.75
31044;BME280;17710;52.520;13.352;2023-08-06T09:53:42;100040.72;;;24.32;67.52
31044;BME280;17710;52.520;13.352;2023-08-06T09:56:09;100036.13;;;24.24;66.92
31044;BME280;17710;52.520;13.352;2023-08-06T09:58:38;100043.06;;;24.27;66.86
31044;BME280;17710;52.520;13.352;2023-08-06T10:01:04;100036.22;;;23.97;67.15
31044;BME280;17710;52.520;13.352;2023-08-06T10:03:32;100031.91;;;24.04;67.67
31044;BME280;17710;52.520;13.352;2023-08-06T10:06:00;100034.53;;;24.39;66.42
31044;BME280;17710;52.520;13.352;2023-08-06T10:08:31;100028.34;;;24.03;68.69
31044;BME280;17710;52.520;13.352;2023-08-06T10:10:59;100022.91;;;23.95;67.92
31044;BME280;17710;52.520;13.352;2023-08-06T10:13:28;100028.94;;;23.89;68.50
31044;BME280;17710;52.520;13.352;2023-08-06T10:15:54;100030.50;;;23.74;69.32
31044;BME280;17710;52.520;13.352;2023-08-06T10:18:21;100021.50;;;23.91;68.66
31044;BME280;17710;52.520;13.352;2023-08-06T10:20:48;100016.75;;;23.85;68.87
31044;BME280;17710;52.520;13.352;2023-08-06T10:23:14;100021.72;;;23.54;70.91
31044;BME280;17710;52.520;13.352;2023-08-06T10:25:41;100020.59;;;24.00;70.17
31044;BME280;17710;52.520;13.352;2023-08-06T10:28:10;100015.84;;;24.20;69.51
31044;BME280;17710;52.520;13.352;2023-08-06T10:30:43;100015.25;;;24.08;69.82
31044;BME280;17710;52.520;13.352;2023-08-06T10:33:09;100011.63;;;24.51;67.66
31044;BME280;17710;52.520;13.352;2023-08-06T10:35:37;100020.66;;;24.34;67.96
31044;BME280;17710;52.520;13.352;2023-08-06T10:38:05;100020.59;;;24.52;67.96
31044;BME280;17710;52.520;13.352;2023-08-06T10:40:33;100014.28;;;24.43;67.75
31044;BME280;17710;52.520;13.352;2023-08-06T10:43:00;100013.63;;;24.41;67.91
31044;BME280;17710;52.520;13.352;2023-08-06T10:45:28;100015.19;;;24.52;67.53
31044;BME280;17710;52.520;13.352;2023-08-06T10:47:56;100011.22;;;24.72;68.23
31044;BME280;17710;52.520;13.352;2023-08-06T10:50:23;100009.22;;;24.82;67.52
31044;BME280;17710;52.520;13.352;2023-08-06T10:52:50;100007.16;;;24.68;65.07
31044;BME280;17710;52.520;13.352;2023-08-06T10:55:24;100005.94;;;24.54;63.84
31044;BME280;17710;52.520;13.352;2023-08-06T10:57:51;100003.03;;;24.56;63.84
31044;BME280;17710;52.520;13.352;2023-08-06T11:00:17;100002.31;;;24.80;63.82
31044;BME280;17710;52.520;13.352;2023-08-06T11:02:46;99992.78;;;24.59;63.07
31044;BME280;17710;52.520;13.352;2023-08-06T11:05:13;99990.22;;;24.92;62.96
31044;BME280;17710;52.520;13.352;2023-08-06T11:07:39;99985.53;;;24.68;63.05
31044;BME280;17710;52.520;13.352;2023-08-06T11:10:07;99989.19;;;24.51;65.51
31044;BME280;17710;52.520;13.352;2023-08-06T11:12:34;99992.44;;;24.54;65.91
31044;BME280;17710;52.520;13.352;2023-08-06T11:15:02;99983.97;;;24.23;67.70
31044;BME280;17710;52.520;13.352;2023-08-06T11:17:30;99980.78;;;24.62;65.39
31044;BME280;17710;52.520;13.352;2023-08-06T11:20:00;99971.94;;;24.44;66.08
31044;BME280;17710;52.520;13.352;2023-08-06T11:22:27;99971.22;;;24.68;65.20
31044;BME280;17710;52.520;13.352;2023-08-06T11:24:55;99963.72;;;24.61;65.58
31044;BME280;17710;52.520;13.352;2023-08-06T11:27:21;99967.63;;;24.59;66.83
31044;BME280;17710;52.520;13.352;2023-08-06T11:29:48;99968.19;;;24.37;66.42
31044;BME280;17710;52.520;13.352;2023-08-06T11:32:14;99960.72;;;24.31;65.95
31044;BME280;17710;52.520;13.352;2023-08-06T11:34:41;99967.38;;;24.18;65.17
31044;BME280;17710;52.520;13.352;2023-08-06T11:37:10;99956.22;;;24.39;64.12
31044;BME280;17710;52.520;13.352;2023-08-06T11:39:38;99963.13;;;24.08;63.90
31044;BME280;17710;52.520;13.352;2023-08-06T11:42:06;99949.09;;;24.30;63.21
31044;BME280;17710;52.520;13.352;2023-08-06T11:44:35;99942.78;;;24.47;63.25
31044;BME280;17710;52.520;13.352;2023-08-06T11:47:02;99946.53;;;24.62;63.21
31044;BME280;17710;52.520;13.352;2023-08-06T11:49:38;99937.75;;;24.60;63.69
31044;BME280;17710;52.520;13.352;2023-08-06T11:52:12;99940.94;;;24.22;63.14
31044;BME280;17710;52.520;13.352;2023-08-06T11:54:39;99938.66;;;24.09;64.84
31044;BME280;17710;52.520;13.352;2023-08-06T11:57:05;99934.75;;;24.30;65.15
31044;BME280;17710;52.520;13.352;2023-08-06T11:59:32;99929.25;;;24.13;66.10
31044;BME280;17710;52.520;13.352;2023-08-06T12:02:00;99935.72;;;23.69;70.31
31044;BME280;17710;52.520;13.352;2023-08-06T12:04:26;99926.50;;;23.54;71.50
31044;BME280;17710;52.520;13.352;2023-08-06T12:06:52;99935.53;;;23.70;70.24
31044;BME280;17710;52.520;13.352;2023-08-06T12:09:20;99931.84;;;23.71;69.65
31044;BME280;17710;52.520;13.352;2023-08-06T12:11:47;99926.88;;;23.59;69.28
31044;BME280;17710;52.520;13.352;2023-08-06T12:14:13;99926.16;;;23.57;70.71
31044;BME280;17710;52.520;13.352;2023-08-06T12:16:39;99915.59;;;23.45;70.44
31044;BME280;17710;52.520;13.352;2023-08-06T12:19:06;99919.63;;;23.85;69.85
31044;BME280;17710;52.520;13.352;2023-08-06T12:21:32;99923.13;;;23.77;70.41
31044;BME280;17710;52.520;13.352;2023-08-06T12:23:58;99921.53;;;23.67;71.17
31044;BME280;17710;52.520;13.352;2023-08-06T12:26:26;99924.94;;;23.69;71.65
31044;BME280;17710;52.520;13.352;2023-08-06T12:28:53;99924.09;;;23.68;71.91
31044;BME280;17710;52.520;13.352;2023-08-06T12:31:20;99917.78;;;23.42;74.13
31044;BME280;17710;52.520;13.352;2023-08-06T12:33:46;99922.88;;;23.63;73.16
31044;BME280;17710;52.520;13.352;2023-08-06T12:36:13;99918.06;;;23.57;72.85
31044;BME280;17710;52.520;13.352;2023-08-06T12:38:39;99920.56;;;23.50;72.54
31044;BME280;17710;52.520;13.352;2023-08-06T12:41:05;99919.88;;;23.48;71.95